createdAt,value
2023-04-11T00:02:00.947Z,13.60
2023-04-11T00:04:27.983Z,13.60
2023-04-11T00:06:54.739Z,13.50
2023-04-11T00:09:21.460Z,13.50
2023-04-11T00:11:48.248Z,13.40
2023-04-11T00:14:15.242Z,13.40
2023-04-11T00:16:42.612Z,13.40
2023-04-11T00:19:12.196Z,13.50
2023-04-11T00:21:40.235Z,13.40
2023-04-11T00:24:10.164Z,13.40
2023-04-11T00:26:36.902Z,13.40
2023-04-11T00:29:03.586Z,13.40
2023-04-11T00:31:30.447Z,13.40
2023-04-11T00:33:57.362Z,13.40
2023-04-11T00:36:24.211Z,13.40
2023-04-11T00:38:51.284Z,13.40
2023-04-11T00:41:19.048Z,13.40
2023-04-11T00:43:45.785Z,13.40
2023-04-11T00:46:13.459Z,13.40
2023-04-11T00:48:41.518Z,13.40
2023-04-11T00:51:08.295Z,13.40
2023-04-11T00:53:37.155Z,13.40
2023-04-11T00:56:04.250Z,13.40
2023-04-11T00:58:32.108Z,13.40
2023-04-11T01:00:58.770Z,13.40
2023-04-11T01:03:25.781Z,13.40
2023-04-11T01:05:53.846Z,13.40
2023-04-11T01:08:22.488Z,13.50
2023-04-11T01:10:49.640Z,13.50
2023-04-11T01:13:16.474Z,13.40
2023-04-11T01:15:43.512Z,13.40
2023-04-11T01:18:10.419Z,13.30
2023-04-11T01:20:38.485Z,13.40
2023-04-11T01:23:06.299Z,13.30
2023-04-11T01:25:33.038Z,13.20
2023-04-11T01:27:59.718Z,13.30
2023-04-11T01:30:26.501Z,13.30
2023-04-11T01:32:53.242Z,13.20
2023-04-11T01:35:20.215Z,13.20
2023-04-11T01:37:47.019Z,13.10
2023-04-11T01:40:17.073Z,12.80
2023-04-11T01:42:44.708Z,12.70
2023-04-11T01:45:13.056Z,12.30
2023-04-11T01:47:39.902Z,11.70
2023-04-11T01:50:07.594Z,11.40
2023-04-11T01:52:34.391Z,11.40
2023-04-11T01:55:01.101Z,11.50
2023-04-11T01:57:27.831Z,11.60
2023-04-11T01:59:54.494Z,11.50
2023-04-11T02:02:27.315Z,11.30
2023-04-11T02:04:54.047Z,11.00
2023-04-11T02:07:21.041Z,11.10
2023-04-11T02:09:47.767Z,11.10
2023-04-11T02:12:14.533Z,11.10
2023-04-11T02:14:43.050Z,10.90
2023-04-11T02:17:10.696Z,10.90
2023-04-11T02:19:45.217Z,11.20
2023-04-11T02:22:12.737Z,11.20
2023-04-11T02:24:39.621Z,11.40
2023-04-11T02:27:06.664Z,11.40
2023-04-11T02:29:33.959Z,11.50
2023-04-11T02:32:01.226Z,11.50
2023-04-11T02:34:28.434Z,11.60
2023-04-11T02:36:55.644Z,11.70
2023-04-11T02:39:25.453Z,11.70
2023-04-11T02:41:52.321Z,11.70
2023-04-11T02:44:19.940Z,11.60
2023-04-11T02:46:46.702Z,11.60
2023-04-11T02:49:13.542Z,11.60
2023-04-11T02:51:40.372Z,11.60
2023-04-11T02:54:07.626Z,11.50
2023-04-11T02:56:37.861Z,11.30
2023-04-11T02:59:06.704Z,10.80
2023-04-11T03:01:33.760Z,10.90
2023-04-11T03:04:00.868Z,11.00
2023-04-11T03:06:28.154Z,11.00
2023-04-11T03:08:55.458Z,11.00
2023-04-11T03:11:22.460Z,11.20
2023-04-11T03:13:49.110Z,11.30
2023-04-11T03:16:15.950Z,11.40
2023-04-11T03:18:42.686Z,11.40
2023-04-11T03:21:10.854Z,11.20
2023-04-11T03:23:38.907Z,11.10
2023-04-11T03:26:06.539Z,10.90
2023-04-11T03:28:33.274Z,10.90
2023-04-11T03:31:00.362Z,10.70
2023-04-11T03:33:27.146Z,10.70
2023-04-11T03:35:53.908Z,10.70
2023-04-11T03:38:21.229Z,10.60
2023-04-11T03:40:48.252Z,10.60
2023-04-11T03:43:16.817Z,10.50
2023-04-11T03:45:43.678Z,10.50
2023-04-11T03:48:10.607Z,10.50
2023-04-11T03:50:37.598Z,10.50
2023-04-11T03:53:04.534Z,10.40
2023-04-11T03:55:31.385Z,10.40
2023-04-11T03:57:58.062Z,10.40
2023-04-11T04:00:24.750Z,10.40
2023-04-11T04:02:51.697Z,10.30
2023-04-11T04:05:18.569Z,10.30
2023-04-11T04:07:48.268Z,10.40
2023-04-11T04:10:15.026Z,10.40
2023-04-11T04:12:41.765Z,10.40
2023-04-11T04:15:09.553Z,10.40
2023-04-11T04:17:36.289Z,10.30
2023-04-11T04:20:04.322Z,10.10
2023-04-11T04:22:31.173Z,10.10
2023-04-11T04:24:58.277Z,10.00
2023-04-11T04:27:25.238Z,9.90
2023-04-11T04:29:58.044Z,9.90
2023-04-11T04:32:30.754Z,10.00
2023-04-11T04:34:58.740Z,10.00
2023-04-11T04:37:27.109Z,10.10
2023-04-11T04:39:56.163Z,10.10
2023-04-11T04:42:24.818Z,10.10
2023-04-11T04:44:52.682Z,10.00
2023-04-11T04:47:22.329Z,10.00
2023-04-11T04:49:49.027Z,10.00
2023-04-11T04:52:16.143Z,10.00
2023-04-11T04:54:43.124Z,10.00
2023-04-11T04:57:09.874Z,9.90
2023-04-11T04:59:36.628Z,9.90
2023-04-11T05:02:03.474Z,10.00
2023-04-11T05:04:32.040Z,9.90
2023-04-11T05:06:59.194Z,9.90
2023-04-11T05:09:26.184Z,10.00
2023-04-11T05:11:53.093Z,9.90
2023-04-11T05:14:19.887Z,9.90
2023-04-11T05:16:46.722Z,10.00
2023-04-11T05:19:13.602Z,9.90
2023-04-11T05:21:40.427Z,10.00
2023-04-11T05:24:07.252Z,10.00
2023-04-11T05:26:33.918Z,10.10
2023-04-11T05:29:01.381Z,10.10
2023-04-11T05:31:28.911Z,10.10
2023-04-11T05:33:57.717Z,10.00
2023-04-11T05:36:25.810Z,10.10
2023-04-11T05:38:52.648Z,10.10
2023-04-11T05:41:19.396Z,10.10
2023-04-11T05:43:46.143Z,10.20
2023-04-11T05:46:13.434Z,10.30
2023-04-11T05:48:41.383Z,10.30
2023-04-11T05:51:08.406Z,10.30
2023-04-11T05:53:35.257Z,10.30
2023-04-11T05:56:02.018Z,10.50
2023-04-11T05:58:31.810Z,10.40
2023-04-11T06:00:59.899Z,10.40
2023-04-11T06:03:27.424Z,10.40
2023-04-11T06:05:54.330Z,10.20
2023-04-11T06:08:21.552Z,10.20
2023-04-11T06:10:48.371Z,10.20
2023-04-11T06:13:15.153Z,10.10
2023-04-11T06:15:41.990Z,10.20
2023-04-11T06:18:08.772Z,10.20
2023-04-11T06:20:35.519Z,10.20
2023-04-11T06:23:02.376Z,10.20
2023-04-11T06:25:29.178Z,10.20
2023-04-11T06:27:55.961Z,10.30
2023-04-11T06:30:22.791Z,10.30
2023-04-11T06:32:49.582Z,10.30
2023-04-11T06:35:16.508Z,10.40
2023-04-11T06:37:43.168Z,10.40
2023-04-11T06:40:10.419Z,10.50
2023-04-11T06:42:37.228Z,10.40
2023-04-11T06:45:05.077Z,10.40
2023-04-11T06:47:32.605Z,10.50
2023-04-11T06:49:59.386Z,10.50
2023-04-11T06:52:28.158Z,10.50
2023-04-11T06:54:55.217Z,10.70
2023-04-11T06:57:22.045Z,10.70
2023-04-11T06:59:48.896Z,10.80
2023-04-11T07:02:16.012Z,10.80
2023-04-11T07:04:42.915Z,10.80
2023-04-11T07:07:09.710Z,10.90
2023-04-11T07:09:36.592Z,11.00
2023-04-11T07:12:03.479Z,10.80
2023-04-11T07:14:30.322Z,10.80
2023-04-11T07:16:57.150Z,10.80
2023-04-11T07:19:23.914Z,10.90
2023-04-11T07:21:50.568Z,11.00
2023-04-11T07:24:18.690Z,10.90
2023-04-11T07:26:46.782Z,11.10
2023-04-11T07:29:14.946Z,11.00
2023-04-11T07:31:41.881Z,10.90
2023-04-11T07:34:08.895Z,10.90
2023-04-11T07:36:35.834Z,11.00
2023-04-11T07:39:04.423Z,11.10
2023-04-11T07:41:31.131Z,11.10
2023-04-11T07:43:58.132Z,11.20
2023-04-11T07:46:25.147Z,11.20
2023-04-11T07:48:51.901Z,11.30
2023-04-11T07:51:18.879Z,11.30
2023-04-11T07:53:45.640Z,11.20
2023-04-11T07:56:12.554Z,11.30
2023-04-11T07:58:39.310Z,11.50
2023-04-11T08:01:09.037Z,11.60
2023-04-11T08:03:36.188Z,11.70
2023-04-11T08:06:03.149Z,11.70
2023-04-11T08:08:29.912Z,11.70
2023-04-11T08:10:56.650Z,11.70
2023-04-11T08:13:23.375Z,11.70
2023-04-11T08:15:50.061Z,11.70
2023-04-11T08:18:16.945Z,11.70
2023-04-11T08:20:43.676Z,11.60
2023-04-11T08:23:11.358Z,11.60
2023-04-11T08:25:39.186Z,11.60
2023-04-11T08:28:06.354Z,11.50
2023-04-11T08:30:33.288Z,11.40
2023-04-11T08:33:00.040Z,11.40
2023-04-11T08:35:26.920Z,11.40
2023-04-11T08:37:54.254Z,11.30
2023-04-11T08:40:21.230Z,11.30
2023-04-11T08:42:48.065Z,11.30
2023-04-11T08:45:14.893Z,11.30
2023-04-11T08:47:44.739Z,11.40
2023-04-11T08:50:12.330Z,11.50
2023-04-11T08:52:40.122Z,11.60
2023-04-11T08:55:07.168Z,11.60
2023-04-11T08:57:34.974Z,11.60
2023-04-11T09:00:18.964Z,11.80
2023-04-11T09:02:59.402Z,11.80
2023-04-11T09:05:28.428Z,11.80
2023-04-11T09:07:55.604Z,11.90
2023-04-11T09:10:23.099Z,11.90
2023-04-11T09:12:49.866Z,12.00
2023-04-11T09:15:24.872Z,12.00
2023-04-11T09:17:52.451Z,12.00
2023-04-11T09:20:22.242Z,12.00
2023-04-11T09:22:50.745Z,12.10
2023-04-11T09:25:21.341Z,12.10
2023-04-11T09:27:48.811Z,12.10
2023-04-11T09:30:24.722Z,12.10
2023-04-11T09:32:56.231Z,12.10
2023-04-11T09:35:25.426Z,12.10
2023-04-11T09:37:58.695Z,12.20
2023-04-11T09:40:27.464Z,12.30
2023-04-11T09:43:00.450Z,12.40
2023-04-11T09:45:28.771Z,12.40
2023-04-11T09:47:58.378Z,12.40
2023-04-11T09:50:27.280Z,12.40
2023-04-11T09:52:59.407Z,12.50
2023-04-11T09:55:26.403Z,12.60
2023-04-11T09:57:54.747Z,12.70
2023-04-11T10:00:24.361Z,12.70
2023-04-11T10:02:53.611Z,12.80
2023-04-11T10:05:26.382Z,12.80
2023-04-11T10:08:14.462Z,12.90
2023-04-11T10:10:43.721Z,12.90
2023-04-11T10:13:35.864Z,12.90
2023-04-11T10:16:13.471Z,12.90
2023-04-11T10:18:52.437Z,13.00
2023-04-11T10:21:32.829Z,13.10
2023-04-11T10:24:11.247Z,13.10
2023-04-11T10:26:56.519Z,13.10
2023-04-11T10:29:47.498Z,13.20
2023-04-11T10:32:24.461Z,13.20
2023-04-11T10:34:54.650Z,13.30
2023-04-11T10:37:32.804Z,13.30
2023-04-11T10:40:10.009Z,13.20
2023-04-11T10:42:42.614Z,13.20
2023-04-11T10:45:29.612Z,13.20
2023-04-11T10:47:59.133Z,13.30
2023-04-11T10:50:28.886Z,13.40
2023-04-11T10:52:57.854Z,13.50
2023-04-11T10:55:29.002Z,13.50
2023-04-11T10:58:10.160Z,13.30
2023-04-11T11:00:52.627Z,13.30
2023-04-11T11:03:25.604Z,13.40
2023-04-11T11:06:04.267Z,13.40
2023-04-11T11:08:33.641Z,13.40
2023-04-11T11:11:08.730Z,13.50
2023-04-11T11:13:52.647Z,13.50
2023-04-11T11:16:21.533Z,13.50
2023-04-11T11:18:53.416Z,13.50
2023-04-11T11:21:27.668Z,13.60
2023-04-11T11:23:59.102Z,13.70
2023-04-11T11:26:42.814Z,13.80
2023-04-11T11:29:10.369Z,13.80
2023-04-11T11:31:47.780Z,13.80
2023-04-11T11:34:30.866Z,13.90
2023-04-11T11:37:01.955Z,13.80
2023-04-11T11:39:30.793Z,13.80
2023-04-11T11:41:58.209Z,13.70
2023-04-11T11:44:26.937Z,13.90
2023-04-11T11:47:06.977Z,14.10
2023-04-11T11:49:53.305Z,14.10
2023-04-11T11:52:41.659Z,14.20
2023-04-11T11:55:18.731Z,14.20
2023-04-11T11:57:46.761Z,14.00
2023-04-11T12:00:15.297Z,14.00
2023-04-11T12:02:44.233Z,14.10
2023-04-11T12:05:12.006Z,14.20
2023-04-11T12:07:39.943Z,14.20
2023-04-11T12:10:11.791Z,14.20
2023-04-11T12:12:41.093Z,14.30
2023-04-11T12:15:17.081Z,14.30
2023-04-11T12:17:48.078Z,14.30
2023-04-11T12:20:15.860Z,14.50
2023-04-11T12:22:42.716Z,14.50
2023-04-11T12:25:11.485Z,14.60
2023-04-11T12:27:39.658Z,14.60
2023-04-11T12:30:07.308Z,14.60
2023-04-11T12:32:34.372Z,14.60
2023-04-11T12:35:05.739Z,14.60
2023-04-11T12:37:33.951Z,14.20
2023-04-11T12:40:01.221Z,14.30
2023-04-11T12:42:28.138Z,14.50
2023-04-11T12:44:54.918Z,14.50
2023-04-11T12:47:21.748Z,14.30
2023-04-11T12:49:48.456Z,14.50
2023-04-11T12:52:15.636Z,14.50
2023-04-11T12:54:42.473Z,14.50
2023-04-11T12:57:09.243Z,14.50
2023-04-11T12:59:36.116Z,14.40
2023-04-11T13:02:03.119Z,14.40
2023-04-11T13:04:30.450Z,14.60
2023-04-11T13:07:01.206Z,14.70
2023-04-11T13:09:29.680Z,14.70
2023-04-11T13:11:58.520Z,14.60
2023-04-11T13:14:25.963Z,14.70
2023-04-11T13:16:52.715Z,14.70
2023-04-11T13:19:20.575Z,14.80
2023-04-11T13:21:47.689Z,14.80
2023-04-11T13:24:14.891Z,14.70
2023-04-11T13:26:41.779Z,14.70
2023-04-11T13:29:08.655Z,14.70
2023-04-11T13:31:35.488Z,14.70
2023-04-11T13:34:02.442Z,14.80
2023-04-11T13:36:29.652Z,14.90
2023-04-11T13:38:57.577Z,15.10
2023-04-11T13:41:25.408Z,15.20
2023-04-11T13:43:52.693Z,15.20
2023-04-11T13:46:19.725Z,15.20
2023-04-11T13:48:46.551Z,15.30
2023-04-11T13:51:13.656Z,15.20
2023-04-11T13:53:40.494Z,15.20
2023-04-11T13:56:07.984Z,15.20
2023-04-11T13:58:35.201Z,15.10
2023-04-11T14:01:02.037Z,15.20
2023-04-11T14:03:33.721Z,15.10
2023-04-11T14:06:01.588Z,15.10
2023-04-11T14:08:29.274Z,15.10
2023-04-11T14:10:56.428Z,15.30
2023-04-11T14:13:23.361Z,15.30
2023-04-11T14:16:04.887Z,15.40
2023-04-11T14:18:34.338Z,15.70
2023-04-11T14:21:01.764Z,15.90
2023-04-11T14:23:29.462Z,15.80
2023-04-11T14:25:56.808Z,15.80
2023-04-11T14:28:26.548Z,15.70
2023-04-11T14:30:54.087Z,15.90
2023-04-11T14:33:21.055Z,16.20
2023-04-11T14:35:47.717Z,16.40
2023-04-11T14:38:15.998Z,16.50
2023-04-11T14:40:42.934Z,16.50
2023-04-11T14:43:09.730Z,16.40
2023-04-11T14:45:36.580Z,16.40
2023-04-11T14:48:03.607Z,16.20
2023-04-11T14:50:30.606Z,16.00
2023-04-11T14:52:57.289Z,15.90
2023-04-11T14:55:24.237Z,15.70
2023-04-11T14:57:55.777Z,15.80
2023-04-11T15:00:24.885Z,15.70
2023-04-11T15:02:56.362Z,15.60
2023-04-11T15:05:23.998Z,15.50
2023-04-11T15:07:52.631Z,15.20
2023-04-11T15:10:24.704Z,15.30
2023-04-11T15:12:51.434Z,15.30
2023-04-11T15:15:18.275Z,15.20
2023-04-11T15:17:50.182Z,15.50
2023-04-11T15:20:19.913Z,15.80
2023-04-11T15:22:47.966Z,16.20
2023-04-11T15:25:17.023Z,16.30
2023-04-11T15:27:44.852Z,16.60
2023-04-11T15:30:12.465Z,16.60
2023-04-11T15:32:52.086Z,16.70
2023-04-11T15:35:19.038Z,16.80
2023-04-11T15:37:45.921Z,16.70
2023-04-11T15:40:15.204Z,16.80
2023-04-11T15:42:42.948Z,16.80
2023-04-11T15:45:10.140Z,16.80
2023-04-11T15:47:36.921Z,16.80
2023-04-11T15:50:04.652Z,16.60
2023-04-11T15:52:31.399Z,16.60
2023-04-11T15:54:58.194Z,16.50
2023-04-11T15:57:26.529Z,16.50
2023-04-11T15:59:53.346Z,16.50
2023-04-11T16:02:20.106Z,16.30
2023-04-11T16:04:50.018Z,16.30
2023-04-11T16:07:19.251Z,16.30
2023-04-11T16:09:46.499Z,16.10
2023-04-11T16:12:13.339Z,16.10
2023-04-11T16:14:40.473Z,16.10
2023-04-11T16:17:07.227Z,15.90
2023-04-11T16:19:33.878Z,15.90
2023-04-11T16:22:00.697Z,15.90
2023-04-11T16:24:29.253Z,15.80
2023-04-11T16:26:57.259Z,15.70
2023-04-11T16:29:25.274Z,15.70
2023-04-11T16:31:52.230Z,15.60
2023-04-11T16:34:19.221Z,15.50
2023-04-11T16:36:45.953Z,15.40
2023-04-11T16:39:12.909Z,15.30
2023-04-11T16:41:39.618Z,15.20
2023-04-11T16:44:11.337Z,15.20
2023-04-11T16:46:42.149Z,15.10
2023-04-11T16:49:09.989Z,15.10
2023-04-11T16:51:37.694Z,15.10
2023-04-11T16:54:09.671Z,15.00
2023-04-11T16:56:37.330Z,15.00
2023-04-11T16:59:04.901Z,14.90
2023-04-11T17:01:32.115Z,14.90
2023-04-11T17:03:59.354Z,14.90
2023-04-11T17:06:27.177Z,14.80
2023-04-11T17:08:53.977Z,14.80
2023-04-11T17:11:20.802Z,14.80
2023-04-11T17:13:49.466Z,14.70
2023-04-11T17:16:19.563Z,14.70
2023-04-11T17:18:46.394Z,14.60
2023-04-11T17:21:13.049Z,14.60
2023-04-11T17:23:56.708Z,14.60
2023-04-11T17:26:23.503Z,14.50
2023-04-11T17:28:50.432Z,14.40
2023-04-11T17:31:18.690Z,14.40
2023-04-11T17:33:45.803Z,14.40
2023-04-11T17:36:13.133Z,14.40
2023-04-11T17:38:40.889Z,14.30
2023-04-11T17:41:14.486Z,14.30
2023-04-11T17:43:42.230Z,14.20
2023-04-11T17:46:09.221Z,14.10
2023-04-11T17:48:36.744Z,14.10
2023-04-11T17:51:04.559Z,14.00
2023-04-11T17:53:31.648Z,14.00
2023-04-11T17:55:58.391Z,13.90
2023-04-11T17:58:25.469Z,13.90
2023-04-11T18:00:56.052Z,13.80
2023-04-11T18:03:25.750Z,13.80
2023-04-11T18:05:54.044Z,13.70
2023-04-11T18:08:26.553Z,13.70
2023-04-11T18:11:00.118Z,13.60
2023-04-11T18:13:27.513Z,13.60
2023-04-11T18:15:54.578Z,13.50
2023-04-11T18:18:21.438Z,13.50
2023-04-11T18:20:48.393Z,13.40
2023-04-11T18:23:15.120Z,13.40
2023-04-11T18:25:41.847Z,13.40
2023-04-11T18:28:08.608Z,13.40
2023-04-11T18:30:35.262Z,13.30
2023-04-11T18:33:02.125Z,13.30
2023-04-11T18:35:28.833Z,13.20
2023-04-11T18:37:55.900Z,13.20
2023-04-11T18:40:22.834Z,13.20
2023-04-11T18:42:53.002Z,13.20
2023-04-11T18:45:21.882Z,13.10
2023-04-11T18:47:49.269Z,13.10
2023-04-11T18:50:17.237Z,13.00
2023-04-11T18:52:45.606Z,13.00
2023-04-11T18:55:13.060Z,13.00
2023-04-11T18:57:40.272Z,13.00
2023-04-11T19:00:17.999Z,13.00
2023-04-11T19:02:47.067Z,13.00
2023-04-11T19:05:14.656Z,13.00
2023-04-11T19:07:42.542Z,12.90
2023-04-11T19:10:10.856Z,12.90
2023-04-11T19:12:38.238Z,12.90
2023-04-11T19:15:09.310Z,12.90
2023-04-11T19:17:38.846Z,12.90
2023-04-11T19:20:13.123Z,12.90
2023-04-11T19:22:43.331Z,12.90
2023-04-11T19:25:11.207Z,12.80
2023-04-11T19:27:42.574Z,12.80
2023-04-11T19:30:10.876Z,12.60
2023-04-11T19:32:38.714Z,12.60
2023-04-11T19:35:08.750Z,12.70
2023-04-11T19:37:36.534Z,12.70
2023-04-11T19:40:07.086Z,12.70
2023-04-11T19:42:36.853Z,12.70
2023-04-11T19:45:05.006Z,12.70
2023-04-11T19:47:32.631Z,12.60
2023-04-11T19:50:00.845Z,12.50
2023-04-11T19:52:28.517Z,12.40
2023-04-11T19:54:56.613Z,12.30
2023-04-11T19:57:26.388Z,12.40
2023-04-11T19:59:53.131Z,12.50
2023-04-11T20:02:20.034Z,12.50
2023-04-11T20:04:46.868Z,12.30
2023-04-11T20:07:13.620Z,12.20
2023-04-11T20:09:40.338Z,12.30
2023-04-11T20:12:07.488Z,12.30
2023-04-11T20:14:34.540Z,12.30
2023-04-11T20:17:01.439Z,12.30
2023-04-11T20:19:29.811Z,12.30
2023-04-11T20:21:56.666Z,12.30
2023-04-11T20:24:23.920Z,12.30
2023-04-11T20:26:51.288Z,12.30
2023-04-11T20:29:18.432Z,12.30
2023-04-11T20:31:45.302Z,12.30
2023-04-11T20:34:12.187Z,12.30
2023-04-11T20:36:39.073Z,12.30
2023-04-11T20:39:06.279Z,12.30
2023-04-11T20:41:33.174Z,12.40
2023-04-11T20:43:59.941Z,12.40
2023-04-11T20:46:29.997Z,12.20
2023-04-11T20:48:56.949Z,12.20
2023-04-11T20:51:25.040Z,12.20
2023-04-11T20:53:51.905Z,12.20
2023-04-11T20:56:18.658Z,12.20
2023-04-11T20:58:46.932Z,12.10
2023-04-11T21:01:13.759Z,12.00
2023-04-11T21:03:42.479Z,12.00
2023-04-11T21:06:10.864Z,12.00
2023-04-11T21:08:37.952Z,11.90
2023-04-11T21:11:05.629Z,12.00
2023-04-11T21:13:32.448Z,12.10
2023-04-11T21:15:59.221Z,12.00
2023-04-11T21:18:26.021Z,12.00
2023-04-11T21:20:52.742Z,11.90
2023-04-11T21:23:19.519Z,11.90
2023-04-11T21:25:46.561Z,11.80
2023-04-11T21:28:13.227Z,11.80
2023-04-11T21:30:39.900Z,11.80
2023-04-11T21:33:06.708Z,11.80
2023-04-11T21:35:33.929Z,11.90
2023-04-11T21:38:00.867Z,11.90
2023-04-11T21:40:27.642Z,11.90
2023-04-11T21:42:55.538Z,11.90
2023-04-11T21:45:23.171Z,11.70
2023-04-11T21:47:51.409Z,11.80
2023-04-11T21:50:19.576Z,11.80
2023-04-11T21:52:46.831Z,11.70
2023-04-11T21:55:14.893Z,11.70
2023-04-11T21:57:41.753Z,11.60
2023-04-11T22:00:11.066Z,11.70
2023-04-11T22:02:38.614Z,11.60
2023-04-11T22:05:08.739Z,11.70
2023-04-11T22:07:46.588Z,11.60
2023-04-11T22:10:14.237Z,11.70
2023-04-11T22:12:41.887Z,11.60
2023-04-11T22:15:11.044Z,11.60
2023-04-11T22:17:38.484Z,11.50
2023-04-11T22:20:06.891Z,11.60
2023-04-11T22:22:35.173Z,11.50
2023-04-11T22:25:01.855Z,11.40
2023-04-11T22:27:29.862Z,11.40
2023-04-11T22:29:56.552Z,11.40
2023-04-11T22:32:24.003Z,11.50
2023-04-11T22:34:51.164Z,11.50
2023-04-11T22:37:17.914Z,11.40
2023-04-11T22:39:44.604Z,11.40
2023-04-11T22:42:11.703Z,11.40
2023-04-11T22:44:38.714Z,11.40
2023-04-11T22:47:08.002Z,11.40
2023-04-11T22:49:40.508Z,11.40
2023-04-11T22:52:15.148Z,11.30
2023-04-11T22:54:43.113Z,11.30
2023-04-11T22:57:10.332Z,11.20
2023-04-11T22:59:37.264Z,11.20
2023-04-11T23:02:04.150Z,11.30
2023-04-11T23:04:32.452Z,11.30
2023-04-11T23:06:59.613Z,11.30
2023-04-11T23:09:27.058Z,11.30
2023-04-11T23:11:53.705Z,11.20
2023-04-11T23:14:21.470Z,11.10
2023-04-11T23:16:48.620Z,11.10
2023-04-11T23:19:15.645Z,11.00
2023-04-11T23:21:43.029Z,10.90
2023-04-11T23:24:09.998Z,10.80
2023-04-11T23:26:37.105Z,10.80
2023-04-11T23:29:04.077Z,10.90
2023-04-11T23:31:31.708Z,10.80
2023-04-11T23:33:58.759Z,10.80
2023-04-11T23:36:27.500Z,10.80
2023-04-11T23:38:54.523Z,10.80
2023-04-11T23:41:21.348Z,10.80
2023-04-11T23:43:48.073Z,10.80
2023-04-11T23:46:17.054Z,10.80
2023-04-11T23:48:44.384Z,10.70
2023-04-11T23:51:11.359Z,10.70
2023-04-11T23:53:38.080Z,10.70
2023-04-11T23:56:05.110Z,10.70
2023-04-11T23:58:31.868Z,10.60
